createdAt,value
2023-04-13T00:02:24.597Z,10.70
2023-04-13T00:05:11.837Z,10.80
2023-04-13T00:07:57.436Z,10.70
2023-04-13T00:10:43.253Z,10.70
2023-04-13T00:13:28.703Z,10.50
2023-04-13T00:16:15.889Z,10.50
2023-04-13T00:19:02.199Z,10.50
2023-04-13T00:21:48.282Z,10.60
2023-04-13T00:24:34.290Z,10.50
2023-04-13T00:27:20.575Z,10.40
2023-04-13T00:30:07.711Z,10.20
2023-04-13T00:32:53.331Z,10.20
2023-04-13T00:35:40.021Z,10.30
2023-04-13T00:38:27.333Z,10.30
2023-04-13T00:41:13.093Z,10.40
2023-04-13T00:43:59.145Z,10.40
2023-04-13T00:46:47.730Z,10.30
2023-04-13T00:49:34.596Z,10.30
2023-04-13T00:52:21.364Z,10.40
2023-04-13T00:55:07.419Z,10.40
2023-04-13T00:57:53.523Z,10.30
2023-04-13T01:00:43.221Z,10.40
2023-04-13T01:03:29.892Z,10.40
2023-04-13T01:06:28.678Z,10.40
2023-04-13T01:09:34.122Z,10.20
2023-04-13T01:12:28.290Z,10.40
2023-04-13T01:15:14.771Z,10.40
2023-04-13T01:18:10.030Z,10.40
2023-04-13T01:20:56.441Z,10.30
2023-04-13T01:23:51.833Z,10.40
2023-04-13T01:26:58.395Z,10.40
2023-04-13T01:29:45.472Z,10.50
2023-04-13T01:32:33.390Z,10.50
2023-04-13T01:35:22.820Z,10.50
2023-04-13T01:38:10.142Z,10.40
2023-04-13T01:40:56.064Z,10.50
2023-04-13T01:43:42.946Z,10.60
2023-04-13T01:46:30.448Z,10.60
2023-04-13T01:49:29.051Z,10.60
2023-04-13T01:52:41.544Z,10.50
2023-04-13T01:55:31.113Z,10.60
2023-04-13T01:58:17.102Z,10.40
2023-04-13T02:01:12.797Z,10.30
2023-04-13T02:03:58.723Z,10.30
2023-04-13T02:06:51.566Z,10.30
2023-04-13T02:09:42.501Z,10.30
2023-04-13T02:12:27.918Z,10.40
2023-04-13T02:15:13.625Z,10.40
2023-04-13T02:17:59.562Z,10.30
2023-04-13T02:20:44.931Z,10.40
2023-04-13T02:23:30.491Z,10.50
2023-04-13T02:26:18.893Z,10.50
2023-04-13T02:29:04.247Z,10.30
2023-04-13T02:31:50.530Z,10.20
2023-04-13T02:34:36.108Z,10.30
2023-04-13T02:37:22.461Z,10.30
2023-04-13T02:40:12.182Z,10.40
2023-04-13T02:43:00.003Z,10.30
2023-04-13T02:45:47.050Z,10.20
2023-04-13T02:48:34.901Z,10.20
2023-04-13T02:51:23.184Z,10.30
2023-04-13T02:54:10.347Z,10.30
2023-04-13T02:57:00.871Z,10.40
2023-04-13T02:59:47.489Z,10.50
2023-04-13T03:02:35.632Z,9.40
2023-04-13T03:05:21.586Z,11.30
2023-04-13T03:08:07.209Z,11.70
2023-04-13T03:10:57.086Z,12.00
2023-04-13T03:13:44.067Z,12.30
2023-04-13T03:16:29.867Z,12.50
2023-04-13T03:19:16.817Z,12.70
2023-04-13T03:22:04.610Z,12.80
2023-04-13T03:24:52.607Z,13.00
2023-04-13T03:27:46.838Z,13.10
2023-04-13T03:30:35.066Z,13.10
2023-04-13T03:33:21.380Z,13.20
2023-04-13T03:36:07.443Z,13.20
2023-04-13T03:38:56.305Z,13.30
2023-04-13T03:41:44.456Z,13.40
2023-04-13T03:44:30.501Z,13.40
2023-04-13T03:47:17.007Z,13.40
2023-04-13T03:50:03.902Z,13.40
2023-04-13T03:52:53.050Z,13.40
2023-04-13T03:55:39.316Z,13.50
2023-04-13T03:58:28.969Z,13.50
2023-04-13T04:01:14.976Z,13.40
2023-04-13T04:04:05.091Z,13.50
2023-04-13T04:06:51.676Z,13.50
2023-04-13T04:09:37.368Z,13.60
2023-04-13T04:12:23.993Z,13.60
2023-04-13T04:15:09.964Z,13.60
2023-04-13T04:17:57.624Z,13.70
2023-04-13T04:20:42.876Z,13.70
2023-04-13T04:23:30.065Z,13.70
2023-04-13T04:26:25.637Z,13.70
2023-04-13T04:29:17.490Z,13.70
2023-04-13T04:32:04.393Z,13.80
2023-04-13T04:34:53.057Z,13.80
2023-04-13T04:37:40.734Z,13.80
2023-04-13T04:40:31.138Z,13.80
2023-04-13T04:43:17.809Z,13.80
2023-04-13T04:46:08.973Z,13.80
2023-04-13T04:49:00.933Z,15.80
2023-04-13T04:51:51.992Z,13.90
2023-04-13T04:54:37.449Z,13.80
2023-04-13T04:57:23.236Z,13.80
2023-04-13T05:00:15.620Z,13.90
2023-04-13T05:03:08.378Z,13.90
2023-04-13T05:05:57.636Z,14.00
2023-04-13T05:08:48.340Z,14.00
2023-04-13T05:11:34.393Z,14.00
2023-04-13T05:14:22.067Z,14.00
2023-04-13T05:17:07.792Z,14.10
2023-04-13T05:19:56.966Z,14.10
2023-04-13T05:22:48.521Z,14.10
2023-04-13T05:25:34.348Z,14.10
2023-04-13T05:28:24.675Z,14.10
2023-04-13T05:31:11.211Z,14.10
2023-04-13T05:34:01.756Z,14.10
2023-04-13T05:36:47.511Z,14.10
2023-04-13T05:39:33.812Z,14.20
2023-04-13T05:42:19.347Z,14.20
2023-04-13T05:45:09.713Z,14.20
2023-04-13T05:48:04.596Z,14.20
2023-04-13T05:50:50.045Z,14.20
2023-04-13T05:53:36.564Z,14.20
2023-04-13T05:56:21.997Z,14.20
2023-04-13T05:59:07.477Z,14.30
2023-04-13T06:01:53.621Z,14.30
2023-04-13T06:04:41.846Z,14.30
2023-04-13T06:07:29.499Z,14.30
2023-04-13T06:10:16.850Z,14.30
2023-04-13T06:13:02.388Z,14.30
2023-04-13T06:15:47.941Z,14.30
2023-04-13T06:18:33.534Z,14.30
2023-04-13T06:21:19.270Z,14.40
2023-04-13T06:24:06.113Z,14.40
2023-04-13T06:26:54.427Z,14.40
2023-04-13T06:29:40.546Z,14.40
2023-04-13T06:32:28.785Z,14.40
2023-04-13T06:35:14.692Z,14.40
2023-04-13T06:38:03.986Z,14.40
2023-04-13T06:41:03.644Z,14.40
2023-04-13T06:43:52.099Z,14.40
2023-04-13T06:46:44.708Z,14.40
2023-04-13T06:49:32.578Z,14.40
2023-04-13T06:52:18.280Z,14.50
2023-04-13T06:55:04.894Z,14.40
2023-04-13T06:57:55.884Z,14.50
2023-04-13T07:00:41.720Z,14.50
2023-04-13T07:03:28.319Z,14.50
2023-04-13T07:06:14.671Z,14.50
2023-04-13T07:09:00.735Z,14.50
2023-04-13T07:11:48.634Z,14.50
2023-04-13T07:14:35.701Z,14.50
2023-04-13T07:17:22.574Z,14.50
2023-04-13T07:20:09.534Z,14.50
2023-04-13T07:22:55.200Z,14.50
2023-04-13T07:25:41.189Z,14.50
2023-04-13T07:28:34.629Z,14.50
2023-04-13T07:31:21.039Z,14.50
2023-04-13T07:34:09.487Z,14.50
2023-04-13T07:37:01.179Z,14.50
2023-04-13T07:39:47.954Z,14.50
2023-04-13T07:42:42.953Z,14.50
2023-04-13T07:45:32.133Z,14.50
2023-04-13T07:48:18.864Z,14.50
2023-04-13T07:51:04.954Z,14.60
2023-04-13T07:53:52.297Z,14.50
2023-04-13T07:56:38.893Z,14.60
2023-04-13T07:59:27.401Z,14.60
2023-04-13T08:02:13.892Z,14.60
2023-04-13T08:05:02.529Z,14.60
2023-04-13T08:07:50.681Z,14.60
2023-04-13T08:10:36.461Z,14.70
2023-04-13T08:13:24.333Z,14.70
2023-04-13T08:16:11.205Z,14.70
2023-04-13T08:19:01.408Z,18.70
2023-04-13T08:21:48.553Z,14.80
2023-04-13T08:24:35.802Z,14.80
2023-04-13T08:27:22.192Z,14.80
2023-04-13T08:30:08.308Z,14.80
2023-04-13T08:33:05.829Z,14.90
2023-04-13T08:35:52.096Z,14.90
2023-04-13T08:38:37.704Z,14.90
2023-04-13T08:41:24.428Z,14.90
2023-04-13T08:44:15.909Z,14.90
2023-04-13T08:47:04.730Z,14.90
2023-04-13T08:49:52.271Z,15.80
2023-04-13T08:52:50.255Z,14.90
2023-04-13T08:55:42.583Z,14.90
2023-04-13T08:58:29.118Z,15.00
2023-04-13T09:01:15.510Z,15.00
2023-04-13T09:04:11.418Z,15.10
2023-04-13T09:07:00.852Z,15.10
2023-04-13T09:09:48.352Z,15.20
2023-04-13T09:12:34.959Z,15.20
2023-04-13T09:15:20.955Z,15.20
2023-04-13T09:18:16.101Z,15.30
2023-04-13T09:21:10.068Z,15.30
2023-04-13T09:24:07.108Z,15.30
2023-04-13T09:26:52.990Z,15.40
2023-04-13T09:29:48.092Z,15.40
2023-04-13T09:32:33.528Z,15.50
2023-04-13T09:35:19.170Z,15.50
2023-04-13T09:38:05.224Z,15.50
2023-04-13T09:40:54.379Z,15.50
2023-04-13T09:43:40.337Z,15.50
2023-04-13T09:46:26.522Z,15.60
2023-04-13T09:49:12.262Z,15.60
2023-04-13T09:51:57.728Z,15.60
2023-04-13T09:54:43.823Z,15.60
2023-04-13T09:57:30.703Z,15.50
2023-04-13T10:00:25.829Z,15.50
2023-04-13T10:03:12.762Z,15.50
2023-04-13T10:06:00.489Z,15.50
2023-04-13T10:08:46.493Z,15.50
2023-04-13T10:11:36.712Z,15.50
2023-04-13T10:14:24.753Z,15.50
2023-04-13T10:17:20.294Z,15.50
2023-04-13T10:20:10.208Z,15.50
2023-04-13T10:22:56.149Z,15.50
2023-04-13T10:25:51.513Z,15.60
2023-04-13T10:28:47.575Z,15.50
2023-04-13T10:31:40.518Z,15.60
2023-04-13T10:34:27.244Z,15.80
2023-04-13T10:37:23.239Z,15.50
2023-04-13T10:40:10.320Z,15.50
2023-04-13T10:42:55.730Z,15.50
2023-04-13T10:45:41.721Z,15.50
2023-04-13T10:48:27.510Z,15.60
2023-04-13T10:51:13.199Z,15.50
2023-04-13T10:54:05.700Z,15.40
2023-04-13T10:56:58.129Z,15.50
2023-04-13T11:02:34.168Z,15.60
2023-04-13T11:05:24.218Z,15.60
2023-04-13T11:08:10.205Z,15.70
2023-04-13T11:10:56.415Z,15.70
2023-04-13T11:13:45.851Z,15.80
2023-04-13T11:16:31.394Z,15.80
2023-04-13T11:19:16.870Z,15.90
2023-04-13T11:22:02.688Z,15.90
2023-04-13T11:24:48.657Z,16.00
2023-04-13T11:27:34.016Z,16.10
2023-04-13T11:30:21.995Z,16.10
2023-04-13T11:33:09.307Z,16.10
2023-04-13T11:35:55.423Z,16.20
2023-04-13T11:38:42.247Z,16.30
2023-04-13T11:41:29.006Z,16.30
2023-04-13T11:44:14.744Z,16.30
2023-04-13T11:47:02.062Z,16.30
2023-04-13T11:49:48.168Z,16.30
2023-04-13T11:52:36.966Z,16.20
2023-04-13T11:55:24.248Z,16.20
2023-04-13T11:58:11.216Z,16.20
2023-04-13T12:01:02.206Z,16.20
2023-04-13T12:04:01.548Z,16.20
2023-04-13T12:06:54.265Z,16.20
2023-04-13T12:09:55.307Z,16.20
2023-04-13T12:15:43.608Z,16.20
2023-04-13T12:18:43.284Z,16.20
2023-04-13T12:21:29.301Z,13.80
2023-04-13T12:24:16.160Z,16.20
2023-04-13T12:27:17.865Z,16.30
2023-04-13T12:30:05.007Z,16.40
2023-04-13T12:32:54.639Z,16.50
2023-04-13T12:35:39.954Z,16.60
2023-04-13T12:38:26.088Z,16.60
2023-04-13T12:41:12.076Z,16.60
2023-04-13T12:43:57.441Z,16.50
2023-04-13T12:46:43.771Z,16.50
2023-04-13T12:49:29.995Z,16.50
2023-04-13T12:52:15.865Z,16.40
2023-04-13T12:55:02.340Z,16.40
2023-04-13T12:57:47.991Z,16.40
2023-04-13T13:00:33.637Z,16.40
2023-04-13T13:03:19.496Z,16.40
2023-04-13T13:06:05.425Z,16.30
2023-04-13T13:08:51.345Z,16.30
2023-04-13T13:11:37.207Z,17.20
2023-04-13T13:14:22.793Z,16.30
2023-04-13T13:17:08.352Z,16.30
2023-04-13T13:19:54.805Z,16.40
2023-04-13T13:22:40.572Z,16.50
2023-04-13T13:25:26.162Z,16.80
2023-04-13T13:28:14.984Z,17.00
2023-04-13T13:31:01.162Z,17.20
2023-04-13T13:33:46.892Z,17.50
2023-04-13T13:36:32.382Z,17.70
2023-04-13T13:39:18.546Z,17.80
2023-04-13T13:42:04.587Z,18.00
2023-04-13T13:44:50.198Z,18.30
2023-04-13T13:47:36.096Z,18.50
2023-04-13T13:50:22.509Z,18.70
2023-04-13T13:53:09.618Z,18.90
2023-04-13T13:55:59.397Z,19.10
2023-04-13T13:58:45.165Z,18.90
2023-04-13T14:01:31.421Z,18.80
2023-04-13T14:04:17.347Z,18.70
2023-04-13T14:07:02.629Z,18.60
2023-04-13T14:09:48.306Z,18.50
2023-04-13T14:12:34.076Z,18.30
2023-04-13T14:15:19.664Z,18.40
2023-04-13T14:18:09.785Z,18.40
2023-04-13T14:20:57.972Z,18.30
2023-04-13T14:23:43.371Z,18.30
2023-04-13T14:26:28.912Z,18.30
2023-04-13T14:29:15.331Z,18.20
2023-04-13T14:32:01.093Z,18.20
2023-04-13T14:34:47.736Z,18.10
2023-04-13T14:37:33.559Z,18.10
2023-04-13T14:40:22.021Z,18.00
2023-04-13T14:43:07.778Z,18.00
2023-04-13T14:45:55.124Z,17.90
2023-04-13T14:48:40.409Z,17.90
2023-04-13T14:51:27.410Z,17.90
2023-04-13T14:54:12.664Z,17.90
2023-04-13T14:56:58.368Z,17.90
2023-04-13T14:59:44.894Z,17.90
2023-04-13T15:02:30.736Z,18.00
2023-04-13T15:05:16.268Z,19.40
2023-04-13T15:08:02.502Z,18.00
2023-04-13T15:10:47.945Z,18.00
2023-04-13T15:13:33.203Z,17.90
2023-04-13T15:16:18.904Z,17.90
2023-04-13T15:19:04.617Z,17.90
2023-04-13T15:21:50.325Z,17.90
2023-04-13T15:25:01.459Z,18.10
2023-04-13T15:27:51.403Z,18.40
2023-04-13T15:30:36.812Z,18.70
2023-04-13T15:33:22.524Z,18.80
2023-04-13T15:36:09.693Z,18.80
2023-04-13T15:38:55.288Z,18.80
2023-04-13T15:41:40.958Z,18.80
2023-04-13T15:44:27.148Z,18.80
2023-04-13T15:47:12.724Z,18.80
2023-04-13T15:49:58.563Z,18.80
2023-04-13T15:52:44.119Z,18.80
2023-04-13T15:55:29.882Z,18.80
2023-04-13T15:58:15.722Z,18.70
2023-04-13T16:01:03.646Z,18.70
2023-04-13T16:03:49.462Z,18.60
2023-04-13T16:06:35.927Z,18.50
2023-04-13T16:09:21.262Z,18.40
2023-04-13T16:12:11.052Z,18.30
2023-04-13T16:14:59.365Z,18.30
2023-04-13T16:17:45.482Z,18.30
2023-04-13T16:20:30.966Z,18.50
2023-04-13T16:23:16.991Z,18.60
2023-04-13T16:26:02.400Z,18.50
2023-04-13T16:28:48.064Z,18.60
2023-04-13T16:31:33.733Z,18.60
2023-04-13T16:34:26.026Z,18.50
2023-04-13T16:37:12.426Z,18.40
2023-04-13T16:39:58.525Z,18.30
2023-04-13T16:42:44.031Z,18.20
2023-04-13T16:45:29.528Z,18.10
2023-04-13T16:48:15.280Z,18.10
2023-04-13T16:51:01.624Z,18.10
2023-04-13T16:53:48.259Z,18.00
2023-04-13T16:56:33.449Z,18.00
2023-04-13T16:59:19.739Z,17.90
2023-04-13T17:02:05.927Z,18.00
2023-04-13T17:04:51.745Z,17.90
2023-04-13T17:07:38.354Z,18.00
2023-04-13T17:10:24.265Z,17.90
2023-04-13T17:13:09.609Z,17.90
2023-04-13T17:15:55.467Z,17.90
2023-04-13T17:18:41.170Z,17.90
2023-04-13T17:21:27.352Z,17.90
2023-04-13T17:24:12.711Z,17.90
2023-04-13T17:26:58.502Z,17.80
2023-04-13T17:29:43.892Z,17.80
2023-04-13T17:32:29.691Z,17.80
2023-04-13T17:35:16.289Z,17.80
2023-04-13T17:38:01.801Z,17.70
2023-04-13T17:40:47.066Z,17.70
2023-04-13T17:43:33.382Z,17.70
2023-04-13T17:46:18.923Z,17.70
2023-04-13T17:49:04.263Z,17.60
2023-04-13T17:51:49.887Z,17.60
2023-04-13T17:54:35.136Z,17.50
2023-04-13T17:57:20.881Z,17.60
2023-04-13T18:00:07.233Z,17.50
2023-04-13T18:02:52.774Z,17.50
2023-04-13T18:05:41.356Z,17.50
2023-04-13T18:08:27.170Z,17.40
2023-04-13T18:11:12.890Z,17.40
2023-04-13T18:13:59.354Z,17.40
2023-04-13T18:16:45.015Z,17.40
2023-04-13T18:19:32.590Z,17.40
2023-04-13T18:22:18.217Z,17.40
2023-04-13T18:25:03.958Z,17.40
2023-04-13T18:27:49.391Z,17.30
2023-04-13T18:30:35.303Z,17.30
2023-04-13T18:33:20.781Z,17.30
2023-04-13T18:36:06.650Z,17.20
2023-04-13T18:38:52.073Z,17.20
2023-04-13T18:41:39.053Z,17.20
2023-04-13T18:44:26.666Z,17.20
2023-04-13T18:47:12.178Z,17.20
2023-04-13T18:49:58.231Z,17.10
2023-04-13T18:52:43.974Z,17.10
2023-04-13T18:55:29.611Z,17.10
2023-04-13T18:58:15.320Z,17.10
2023-04-13T19:01:00.945Z,17.10
2023-04-13T19:03:47.060Z,17.10
2023-04-13T19:06:32.760Z,17.10
2023-04-13T19:09:18.341Z,17.00
2023-04-13T19:12:04.552Z,17.10
2023-04-13T19:14:49.908Z,17.00
2023-04-13T19:17:35.627Z,17.00
2023-04-13T19:20:21.905Z,17.00
2023-04-13T19:23:07.237Z,17.00
2023-04-13T19:25:53.157Z,16.90
2023-04-13T19:28:38.620Z,16.90
2023-04-13T19:31:24.202Z,16.90
2023-04-13T19:34:10.174Z,16.90
2023-04-13T19:36:55.941Z,16.80
2023-04-13T19:39:41.781Z,16.80
2023-04-13T19:42:28.559Z,16.80
2023-04-13T19:45:14.999Z,16.80
2023-04-13T19:48:01.048Z,16.80
2023-04-13T19:50:46.654Z,16.80
2023-04-13T19:53:35.242Z,16.80
2023-04-13T19:56:22.764Z,16.70
2023-04-13T19:59:08.353Z,16.80
2023-04-13T20:01:54.209Z,16.70
2023-04-13T20:04:40.362Z,16.70
2023-04-13T20:07:25.705Z,16.60
2023-04-13T20:10:12.165Z,16.70
2023-04-13T20:12:57.610Z,16.60
2023-04-13T20:15:43.210Z,16.60
2023-04-13T20:18:28.975Z,16.60
2023-04-13T20:21:14.637Z,16.50
2023-04-13T20:24:00.536Z,16.50
2023-04-13T20:26:47.311Z,16.50
2023-04-13T20:29:32.824Z,16.50
2023-04-13T20:32:18.742Z,16.40
2023-04-13T20:35:06.112Z,16.40
2023-04-13T20:37:51.859Z,16.40
2023-04-13T20:40:37.743Z,16.40
2023-04-13T20:43:24.199Z,16.40
2023-04-13T20:46:10.082Z,15.10
2023-04-13T20:48:55.951Z,16.40
2023-04-13T20:51:41.575Z,16.30
2023-04-13T20:54:27.113Z,16.30
2023-04-13T20:57:12.495Z,16.30
2023-04-13T20:59:58.342Z,16.30
2023-04-13T21:02:44.290Z,16.30
2023-04-13T21:05:29.902Z,16.30
2023-04-13T21:08:15.255Z,16.30
2023-04-13T21:11:01.067Z,16.30
2023-04-13T21:13:46.909Z,16.30
2023-04-13T21:16:32.419Z,16.20
2023-04-13T21:19:18.449Z,16.20
2023-04-13T21:22:04.014Z,16.20
2023-04-13T21:24:49.799Z,16.10
2023-04-13T21:27:37.411Z,16.20
2023-04-13T21:30:22.852Z,16.20
2023-04-13T21:33:08.548Z,16.10
2023-04-13T21:35:54.088Z,15.40
2023-04-13T21:38:44.144Z,14.70
2023-04-13T21:41:29.749Z,14.10
2023-04-13T21:44:28.857Z,13.70
2023-04-13T21:47:15.460Z,13.40
2023-04-13T21:50:00.917Z,13.10
2023-04-13T21:52:46.931Z,12.90
2023-04-13T21:55:32.348Z,12.70
2023-04-13T21:58:18.034Z,12.50
2023-04-13T22:01:03.779Z,12.30
2023-04-13T22:03:49.132Z,12.20
2023-04-13T22:06:34.741Z,12.10
2023-04-13T22:09:20.550Z,12.00
2023-04-13T22:12:06.232Z,11.80
2023-04-13T22:14:55.387Z,11.80
2023-04-13T22:17:41.058Z,11.60
2023-04-13T22:20:26.363Z,11.50
2023-04-13T22:23:12.281Z,11.30
2023-04-13T22:26:03.610Z,11.20
2023-04-13T22:28:48.996Z,11.20
2023-04-13T22:31:34.667Z,11.20
2023-04-13T22:34:20.377Z,10.90
2023-04-13T22:37:07.019Z,11.00
2023-04-13T22:39:52.673Z,10.90
2023-04-13T22:42:38.293Z,10.90
2023-04-13T22:45:23.984Z,10.90
2023-04-13T22:48:09.638Z,10.70
2023-04-13T22:50:55.251Z,10.80
2023-04-13T22:53:40.711Z,10.60
2023-04-13T22:56:26.198Z,10.60
2023-04-13T22:59:11.869Z,10.50
2023-04-13T23:01:57.719Z,10.30
2023-04-13T23:04:43.050Z,10.30
2023-04-13T23:07:28.483Z,10.30
2023-04-13T23:10:16.476Z,7.30
2023-04-13T23:13:02.667Z,10.30
2023-04-13T23:15:48.345Z,10.30
2023-04-13T23:18:33.897Z,10.30
2023-04-13T23:21:19.212Z,10.30
2023-04-13T23:24:04.921Z,10.20
2023-04-13T23:26:51.003Z,10.20
2023-04-13T23:29:36.942Z,10.20
2023-04-13T23:32:22.220Z,10.20
2023-04-13T23:35:08.200Z,10.10
2023-04-13T23:37:53.865Z,10.10
2023-04-13T23:40:39.322Z,10.00
2023-04-13T23:43:25.070Z,9.90
2023-04-13T23:46:10.398Z,9.90
2023-04-13T23:48:56.076Z,10.30
2023-04-13T23:51:41.350Z,9.60
2023-04-13T23:54:26.986Z,9.70
2023-04-13T23:57:12.819Z,9.60
2023-04-13T23:59:58.559Z,9.70
